Flight Track Log - Related Links

Times and Time Zones

All times are in EDT time to prevent confusion due to time zone crossing. See the UAL44 flight status page for this flight to view local times or setup timezone preferences in your user account.

Time Position Orientation Groundspeed Altitude Reporting Facility
EDT Latitude Longitude Course Direction KTS MPH feet Rate Location/Type
Sun 06:55:26 PM 40.6769 -74.1777 205° Southwest 130 150 300  Level FlightAware ADS-B
Sun 06:55:34 PM 40.6709 -74.1806 200° South 170 196 700 3,500 Climbing FlightAware ADS-B
Sun 06:55:38 PM 40.6677 -74.1809 184° South 170 196 1,000 3,333 Climbing FlightAware ADS-B
Sun 06:55:43 PM 40.6640 -74.1807 178° South 170 196 1,200 2,500 Climbing FlightAware ADS-B
Sun 06:55:50 PM 40.6586 -74.1802 176° South 173 199 1,500 1,875 Climbing FlightAware ADS-B
Sun 06:55:59 PM 40.6513 -74.1813 187° South 181 208 1,700 1,412 Climbing FlightAware ADS-B
Sun 06:56:07 PM 40.6448 -74.1844 200° South 188 216 1,900 1,500 Climbing FlightAware ADS-B
Sun 06:56:11 PM 40.6415 -74.1865 206° Southwest 189 217 2,000 2,667 Climbing FlightAware ADS-B
Sun 06:56:16 PM 40.6371 -74.1895 207° Southwest 190 219 2,300 2,500 Climbing FlightAware ADS-B
Sun 06:56:23 PM 40.6325 -74.1941 217° Southwest 193 222 2,500 1,059 Climbing FlightAware ADS-B
Sun 06:56:33 PM 40.6271 -74.2043 235° Southwest 203 234 2,600 800 Climbing FlightAware ADS-B
Sun 06:56:38 PM 40.6257 -74.2108 254° West 224 258 2,700 667 Climbing FlightAware ADS-B
Sun 06:56:42 PM 40.6254 -74.2166 266° West 231 266 2,700 1,125 Level FlightAware ADS-B
Sun 06:56:54 PM 40.6291 -74.2330 287° West 250 288 3,000 2,000 Climbing FlightAware ADS-B
Sun 06:56:57 PM 40.6312 -74.2367 307° West 256 295 3,200 3,273 Climbing FlightAware ADS-B
Sun 06:57:05 PM 40.6384 -74.2449 319° Northwest 266 306 3,600 3,273 Climbing FlightAware ADS-B
Sun 06:57:08 PM 40.6425 -74.2474 335° Northwest 268 308 3,800 3,300 Climbing FlightAware ADS-B
Sun 06:57:25 PM 40.6628 -74.2489 357° North 276 318 4,700 3,429 Climbing FlightAware ADS-B
Sun 06:57:29 PM 40.6691 -74.2462 18° North 289 333 5,000 3,500 Climbing FlightAware ADS-B
Sun 06:57:37 PM 40.6782 -74.2403 26° Northeast 295 339 5,400 3,000 Climbing FlightAware ADS-B
Sun 06:57:49 PM 40.6926 -74.2284 32° Northeast 298 343 6,000 2,143 Climbing FlightAware ADS-B
Sun 06:58:05 PM 40.7113 -74.2125 33° Northeast 300 345 6,400 2,063 Climbing FlightAware ADS-B
Sun 06:58:21 PM 40.7291 -74.1967 34° Northeast 300 345 7,100 2,400 Climbing FlightAware ADS-B
Sun 06:58:35 PM 40.7456 -74.1824 33° Northeast 304 350 7,600 1,875 Climbing FlightAware ADS-B
Sun 06:58:37 PM 40.7475 -74.1809 31° Northeast 305 351 7,600 1,200 Level FlightAware ADS-B
Sun 06:58:40 PM 40.7511 -74.1777 34° Northeast 305 351 7,700 1,500 Climbing FlightAware ADS-B
Sun 06:58:45 PM 40.7571 -74.1717 37° Northeast 307 353 7,800 750 Climbing FlightAware ADS-B
Sun 06:58:48 PM 40.7604 -74.1675 44° Northeast 308 354 7,800 1,000 Level FlightAware ADS-B
Sun 06:58:51 PM 40.7628 -74.1639 49° Northeast 310 357 7,900 1,000 Climbing FlightAware ADS-B
Sun 06:58:54 PM 40.7661 -74.1584 52° Northeast 311 358 7,900  Level FlightAware ADS-B
Sun 06:59:00 PM 40.7706 -74.1486 59° Northeast 312 359 7,900  Level FlightAware ADS-B
Sun 06:59:05 PM 40.7729 -74.1412 68° East 313 360 7,900  Level FlightAware ADS-B
Sun 06:59:09 PM 40.7746 -74.1335 74° East 315 362 7,900 632 Level FlightAware ADS-B
Sun 06:59:24 PM 40.7789 -74.1053 79° East 313 360 8,100 1,400 Climbing FlightAware ADS-B
Sun 06:59:39 PM 40.7832 -74.0770 79° East 321 369 8,600 2,250 Climbing FlightAware ADS-B
Sun 06:59:56 PM 40.7885 -74.0430 78° East 328 377 9,300 2,333 Climbing FlightAware ADS-B
Sun 06:59:57 PM 40.7887 -74.0420 75° East 330 380 9,300 1,875 Level FlightAware ADS-B
Sun 07:00:12 PM 40.7937 -74.0116 78° East 336 387 9,800 1,875 Climbing FlightAware ADS-B
Sun 07:00:13 PM 40.7938 -74.0104 84° East 336 387 9,800  Level FlightAware ADS-B
Sun 07:00:27 PM 40.7988 -73.9807 77° East 338 389 9,800  Level FlightAware ADS-B
Sun 07:00:33 PM 40.8020 -73.9701 68° East 338 389 9,800  Level FlightAware ADS-B
Sun 07:00:38 PM 40.8063 -73.9608 59° Northeast 328 377 9,800  Level FlightAware ADS-B
Sun 07:00:42 PM 40.8098 -73.9547 53° Northeast 325 374 9,800 286 Level FlightAware ADS-B
Sun 07:00:59 PM 40.8254 -73.9275 53° Northeast 345 397 9,900 273 Climbing FlightAware ADS-B
Sun 07:01:04 PM 40.8306 -73.9188 52° Northeast 342 394 9,900 1,622 Level FlightAware ADS-B
Sun 07:01:36 PM 40.8674 -73.8647 48° Northeast 377 434 10,900 1,714 Climbing FlightAware ADS-B
Sun 07:02:14 PM 40.9139 -73.8001 46° Northeast 397 457 11,900 619 Climbing FlightAware ADS-B
Sun 07:03:13 PM 40.9840 -73.7020 47° Northeast 404 465 11,900  Level FlightAware ADS-B
Sun 07:03:58 PM 41.0430 -73.6170 47° Northeast 402 463 11,900 60 Level FlightAware ADS-B
Sun 07:04:53 PM 41.1070 -73.5260 47° Northeast 404 465 12,000 1,500 Climbing FlightAware ADS-B
Sun 07:05:38 PM 41.1650 -73.4440 47° Northeast 390 449 14,400 1,600 Climbing FlightAware ADS-B
Sun 07:06:23 PM 41.2170 -73.3710 47° Northeast 390 449 14,400  Level FlightAware ADS-B
Sun 07:07:03 PM 41.2580 -73.3110 48° Northeast 390 449 14,400 1,911 Level FlightAware ADS-B
Sun 07:12:18 PM 41.6120 -72.6050 56° Northeast 26,100 2,121 Climbing FlightAware ADS-B
Sun 07:13:08 PM 41.7140 -72.3760 59° Northeast 533 613 27,300 1,333 Climbing FlightAware ADS-B
Sun 07:13:48 PM 41.7720 -72.2460 59° Northeast 541 623 28,100 1,575 Climbing FlightAware ADS-B
Sun 07:14:28 PM 41.8300 -72.1160 59° Northeast 541 623 29,400 1,765 Climbing FlightAware ADS-B
Sun 07:15:13 PM 41.8850 -71.9900 60° Northeast 541 623 30,600 1,553 Climbing FlightAware ADS-B
Sun 07:15:53 PM 41.9330 -71.8820 59° Northeast 538 619 31,600 1,412 Climbing FlightAware ADS-B
Sun 07:16:38 PM 41.9940 -71.7480 58° Northeast 536 617 32,600 933 Climbing FlightAware ADS-B
Sun 07:17:23 PM 42.0540 -71.6220 57° Northeast 537 618 33,000 282 Climbing FlightAware ADS-B
Sun 07:18:03 PM 42.1080 -71.5090 57° Northeast 535 616 33,000  Level FlightAware ADS-B
Sun 07:18:43 PM 42.1610 -71.3960 58° Northeast 528 608 33,000 71 Level FlightAware ADS-B
Sun 07:19:28 PM 42.1940 -71.2580 72° East 527 606 33,100 71 Climbing FlightAware ADS-B
Sun 07:20:08 PM 42.1990 -71.1250 87° East 531 611 33,100  Level FlightAware ADS-B
Sun 07:20:53 PM 42.2090 -70.9790 85° East 533 613 33,100 -71 Level FlightAware ADS-B
Sun 07:21:33 PM 42.2110 -70.8530 89° East 533 613 33,000 -80 Descending FlightAware ADS-B
Sun 07:22:08 PM 42.2120 -70.7250 89° East 532 612 33,000  Level FlightAware ADS-B
Sun 07:24:08 PM 42.2130 -70.3420 90° East 526 605 33,000  Level FlightAware ADS-B
Sun 07:27:43 PM 42.2150 -69.6400 90° East 519 597 33,000  Level FlightAware ADS-B
Sun 07:28:58 PM 42.2140 -69.3990 90° East 519 597 33,000  Level FlightAware ADS-B
Sun 07:30:08 PM 42.2130 -69.1730 90° East 518 596 33,000  Level FlightAware ADS-B
Sun 07:32:33 PM 42.2100 -68.7060 90° East 515 593 33,000  Level FlightAware ADS-B
Sun 07:33:48 PM 42.2070 -68.4670 91° East 513 590 33,000  Level FlightAware ADS-B
Sun 07:34:58 PM 42.2040 -68.2440 91° East 513 590 33,000  Level FlightAware ADS-B
Sun 07:35:38 PM 42.2020 -68.1140 91° East 33,000  Level FlightAware ADS-B
Sun 07:36:28 PM 42.2010 -67.9610 90° East 513 590 33,000  Level FlightAware ADS-B
Sun 07:37:03 PM 42.1980 -67.8440 92° East 513 590 33,000  Level FlightAware ADS-B
Sun 07:37:53 PM 42.1950 -67.6900 91° East 513 590 33,000  Level FlightAware ADS-B
Sun 07:38:28 PM 42.1950 -67.5860 90° East 513 590 33,000  Level FlightAware ADS-B
Sun 07:39:18 PM 42.1950 -67.4500 90° East 513 590 33,000  Level FlightAware ADS-B
Sun 07:39:58 PM 42.1950 -67.3410 90° East 513 590 33,000  Level FlightAware ADS-B
Sun 07:40:38 PM 42.1950 -67.2320 90° East 513 590 33,000  Level FlightAware ADS-B
Sun 07:41:18 PM 42.1950 -67.1230 90° East 513 590 33,000  Level FlightAware ADS-B
Sun 07:41:58 PM 42.1950 -67.0140 90° East 513 590 33,000  Level FlightAware ADS-B
Sun 07:42:48 PM 42.1950 -66.8780 90° East 513 590 33,000  Level FlightAware ADS-B
Sun 07:43:28 PM 42.1950 -66.7690 90° East 513 590 33,000  Level FlightAware ADS-B
Sun 07:44:08 PM 42.1950 -66.6600 90° East 513 590 33,000  Level FlightAware ADS-B
Sun 07:44:48 PM 42.1950 -66.5510 90° East 513 590 33,000  Level FlightAware ADS-B
Sun 07:45:28 PM 42.1950 -66.4420 90° East 513 590 33,000  Level FlightAware ADS-B
Sun 07:45:58 PM 42.1950 -66.3610 90° East 513 590 33,000  Level FlightAware ADS-B
Sun 07:46:38 PM 42.1950 -66.2520 90° East 513 590 33,000  Level FlightAware ADS-B
Sun 07:47:18 PM 42.1950 -66.1430 90° East 513 590 33,000 65 Level FlightAware ADS-B
Sun 07:48:10 PM 42.5333 -65.8000 90° East 510 587 33,100  Climbing Moncton Center
Sun 07:49:10 PM 42.6167 -65.6167 58° Northeast 510 587 33,000  Descending Moncton Center
Sun 07:50:10 PM 42.6667 -65.4333 70° East 520 598 33,100  Climbing Moncton Center
Sun 07:51:10 PM 42.7167 -65.2667 68° East 510 587 33,000  Descending Moncton Center
Sun 07:52:10 PM 42.7667 -65.0833 70° East 510 587 33,100 50 Climbing Moncton Center
Sun 07:53:10 PM 42.8167 -64.9000 70° East 510 587 33,100  Level Moncton Center
Sun 07:54:10 PM 42.8667 -64.7167 70° East 510 587 33,100  Level Moncton Center
Sun 07:55:10 PM 42.9167 -64.5333 70° East 510 587 33,100  Level Moncton Center
Sun 07:56:10 PM 42.9667 -64.3500 70° East 500 575 33,100  Level Moncton Center
Sun 07:57:10 PM 43.0167 -64.1833 68° East 510 587 33,100 -50 Level Moncton Center
Sun 07:58:10 PM 43.0667 -64.0167 68° East 510 587 33,000  Descending Moncton Center
Sun 07:59:10 PM 43.1167 -63.8333 69° East 510 587 33,100 50 Climbing Moncton Center
Sun 08:00:10 PM 43.1667 -63.6333 71° East 500 575 33,100  Level Moncton Center
Sun 08:01:10 PM 43.2167 -63.4500 69° East 510 587 33,100  Level Moncton Center
Sun 08:02:10 PM 43.2667 -63.2667 69° East 510 587 33,100 -50 Level Moncton Center
Sun 08:03:10 PM 43.3167 -63.0833 69° East 520 598 33,000 -50 Descending Moncton Center
Sun 08:04:10 PM 43.3667 -62.9000 69° East 520 598 33,000  Level Moncton Center
Sun 08:05:10 PM 43.4167 -62.7167 69° East 520 598 33,000 50 Level Moncton Center
Sun 08:06:10 PM 43.4667 -62.5167 71° East 520 598 33,100 50 Climbing Moncton Center
Sun 08:07:10 PM 43.5167 -62.3500 67° East 520 598 33,100  Level Moncton Center
Sun 08:08:10 PM 43.5667 -62.1667 69° East 530 610 33,100 -50 Level Moncton Center
Sun 08:09:10 PM 43.6000 -61.9500 78° East 520 598 33,000  Descending Moncton Center
Sun 08:10:10 PM 43.6500 -61.7667 69° East 520 598 33,100 50 Climbing Moncton Center
Sun 08:11:10 PM 43.7167 -61.5833 63° Northeast 520 598 33,100  Level Moncton Center
Sun 08:12:10 PM 43.7667 -61.3833 71° East 530 610 33,100  Level Moncton Center
Sun 08:13:10 PM 43.8000 -61.1833 77° East 520 598 33,100  Level Moncton Center
Sun 08:14:10 PM 43.8500 -60.9833 71° East 530 610 33,100  Level Moncton Center
Sun 08:15:10 PM 43.9000 -60.8167 67° East 520 598 33,100  Level Moncton Center
Sun 08:16:10 PM 43.9500 -60.6167 71° East 520 598 33,100  Level Moncton Center
Sun 08:17:10 PM 44.0000 -60.4167 71° East 530 610 33,100  Level Moncton Center
Sun 08:18:10 PM 44.0333 -60.2333 76° East 530 610 33,100  Level Moncton Center
Sun 08:19:10 PM 44.0833 -60.0500 69° East 530 610 33,100  Level Moncton Center
Sun 08:20:10 PM 44.1333 -59.8333 72° East 520 598 33,100  Level Moncton Center
Sun 08:21:10 PM 44.1667 -59.6667 74° East 530 610 33,100  Level Moncton Center
Sun 08:22:10 PM 44.2333 -59.4500 67° East 530 610 33,100  Level Moncton Center
Sun 08:23:10 PM 44.2667 -59.2667 76° East 520 598 33,100  Level Moncton Center
Sun 08:24:10 PM 44.3167 -59.0667 71° East 530 610 33,100 -50 Level Moncton Center
Sun 08:25:10 PM 44.3500 -58.8833 76° East 530 610 33,000  Descending Moncton Center
Sun 08:26:10 PM 44.3833 -58.6833 77° East 530 610 33,100  Climbing Moncton Center
Sun 08:27:10 PM 44.4333 -58.4667 72° East 530 610 33,000  Descending Moncton Center
Sun 08:28:12 PM 44.4833 -58.2667 71° East 530 610 33,100 400 Climbing Gander Center
Sun 08:29:10 PM 44.5167 -58.0833 76° East 530 610 33,800 508 Climbing Moncton Center
Sun 08:30:10 PM 44.5667 -57.9000 69° East 540 621 34,100 150 Climbing Moncton Center
Sun 08:31:10 PM 44.6167 -57.6667 73° East 530 610 34,100  Level Moncton Center
Sun 08:32:10 PM 44.6500 -57.4833 76° East 530 610 34,100  Level Moncton Center
Sun 08:33:12 PM 44.7000 -57.2667 72° East 540 621 34,100  Level Gander Center
Sun 08:34:10 PM 44.7333 -57.0667 77° East 530 610 34,100  Level Moncton Center
Sun 08:35:10 PM 44.7833 -56.8667 71° East 530 610 34,100  Level Moncton Center
Sun 08:36:10 PM 44.8167 -56.6833 76° East 530 610 34,100  Level Moncton Center
Sun 08:37:12 PM 44.8500 -56.4667 78° East 540 621 34,100  Level Gander Center
Sun 08:38:10 PM 44.9000 -56.2667 70° East 540 621 34,100  Level Moncton Center
Sun 08:39:10 PM 44.9500 -56.0667 70° East 540 621 34,100  Level Moncton Center
Sun 08:40:10 PM 44.9833 -55.8500 78° East 540 621 34,100  Level Moncton Center
Sun 08:42:02 PM 45.0500 -55.4667 76° East 550 633 34,100  Level Gander Center
Sun 08:43:02 PM 45.1000 -55.2500 72° East 550 633 34,100  Level Gander Center
Sun 08:44:02 PM 45.1333 -55.0667 75° East 550 633 34,100  Level Gander Center
Sun 08:45:02 PM 45.1667 -54.8500 78° East 550 633 34,100  Level Gander Center
Sun 08:46:02 PM 45.2000 -54.6500 77° East 550 633 34,100  Level Gander Center
Sun 08:47:02 PM 45.2500 -54.4333 72° East 550 633 34,100  Level Gander Center
Sun 08:48:02 PM 45.3000 -54.2167 72° East 550 633 34,100  Level Gander Center
Sun 08:49:02 PM 45.3333 -54.0167 77° East 550 633 34,100  Level Gander Center
Sun 08:50:02 PM 45.3667 -53.8000 78° East 560 644 34,100 350 Level Gander Center
Sun 08:51:02 PM 45.4000 -53.6000 77° East 550 633 34,800 500 Climbing Gander Center
Sun 08:52:02 PM 45.4333 -53.3667 78° East 560 644 35,100 150 Climbing Gander Center
Sun 08:53:02 PM 45.4667 -53.1667 77° East 570 656 35,100  Level Gander Center
Sun 08:54:02 PM 45.5000 -52.9500 78° East 570 656 35,100  Level Gander Center
Sun 08:55:02 PM 45.5500 -52.7167 73° East 570 656 35,100  Level Gander Center
Sun 08:56:02 PM 45.5833 -52.5000 78° East 570 656 35,100  Level Gander Center
Sun 08:57:02 PM 45.6167 -52.2833 78° East 580 667 35,100  Level Gander Center
Sun 08:58:02 PM 45.6667 -52.0500 73° East 570 656 35,100  Level Gander Center
Sun 08:59:02 PM 45.7000 -51.8333 78° East 570 656 35,100  Level Gander Center
Sun 09:00:02 PM 45.7333 -51.6167 77° East 580 667 35,100  Level Gander Center
Sun 09:01:02 PM 45.7667 -51.3833 78° East 580 667 35,100  Level Gander Center
Sun 09:02:02 PM 45.8167 -51.1667 72° East 580 667 35,100  Level Gander Center
Sun 09:03:02 PM 45.8333 -50.9500 84° East 580 667 35,100  Level Gander Center
Sun 09:04:02 PM 45.8667 -50.7000 79° East 580 667 35,100  Level Gander Center
Sun 09:05:02 PM 45.9167 -50.4667 73° East 590 679 35,100  Level Gander Center
Sun 09:06:02 PM 45.9333 -50.2500 84° East 580 667 35,100  Level Gander Center
Sun 09:07:02 PM 45.9667 -50.0167 78° East 590 679 35,100  Level Gander Center
Sun 09:08:02 PM 46.0000 -49.7667 79° East 580 667 35,100  Level Gander Center
Sun 09:09:02 PM 46.0333 -49.5667 76° East 590 679 35,100  Level Gander Center
Sun 09:10:02 PM 46.0667 -49.3500 77° East 580 667 35,100  Level Gander Center
Sun 09:11:02 PM 46.1000 -49.1000 79° East 590 679 35,100  Level Gander Center
Sun 09:12:02 PM 46.1333 -48.8667 78° East 590 679 35,100  Level Gander Center
Sun 09:13:02 PM 46.1500 -48.6333 84° East 590 679 35,100  Level Gander Center
Sun 09:14:02 PM 46.1667 -48.4000 84° East 590 679 35,100  Level Gander Center
Sun 09:15:02 PM 46.2167 -48.1667 73° East 600 690 35,100  Level Gander Center
Sun 09:16:02 PM 46.2333 -47.9500 84° East 590 679 35,100  Level Gander Center
Sun 09:17:02 PM 46.2667 -47.7167 78° East 600 690 35,100  Level Gander Center
Sun 09:18:02 PM 46.3000 -47.4667 79° East 600 690 35,100  Level Gander Center
Sun 09:19:02 PM 46.3333 -47.2333 78° East 600 690 35,100  Level Gander Center
Sun 09:21:02 PM 46.3667 -46.7667 84° East 610 702 35,100  Level Gander Center
Sun 09:23:00 PM 46.4223 -46.3719 78° East  Level FlightAware Approximate
Sun 09:30:00 PM 46.6076 -44.9586 82° East  Level FlightAware Approximate
Sun 09:31:00 PM 46.6281 -44.7551 82° East  Level FlightAware Approximate
Sun 09:32:00 PM 46.6482 -44.5514 82° East  Level FlightAware Approximate
Sun 09:33:00 PM 46.6679 -44.3476 82° East  Level FlightAware Approximate
Sun 09:34:00 PM 46.6873 -44.1436 82° East  Level FlightAware Approximate
Sun 09:35:00 PM 46.7063 -43.9395 82° East  Level FlightAware Approximate
Sun 09:36:00 PM 46.7249 -43.7352 82° East  Level FlightAware Approximate
Sun 09:37:00 PM 46.7432 -43.5308 82° East  Level FlightAware Approximate
Sun 09:38:00 PM 46.7611 -43.3262 83° East  Level FlightAware Approximate
Sun 09:39:00 PM 46.7787 -43.1216 83° East  Level FlightAware Approximate
Sun 09:40:00 PM 46.7958 -42.9168 83° East  Level FlightAware Approximate
Sun 09:41:00 PM 46.8127 -42.7118 83° East  Level FlightAware Approximate
Sun 09:42:00 PM 46.8291 -42.5067 83° East  Level FlightAware Approximate
Sun 09:43:00 PM 46.8452 -42.3016 83° East  Level FlightAware Approximate
Sun 09:44:00 PM 46.8609 -42.0962 84° East  Level FlightAware Approximate
Sun 09:45:00 PM 46.8763 -41.8908 84° East  Level FlightAware Approximate
Sun 09:46:00 PM 46.8913 -41.6853 84° East  Level FlightAware Approximate
Sun 09:47:00 PM 46.9059 -41.4796 84° East  Level FlightAware Approximate
Sun 09:48:00 PM 46.9201 -41.2738 84° East  Level FlightAware Approximate
Sun 09:49:00 PM 46.9340 -41.0680 84° East  Level FlightAware Approximate
Sun 09:50:00 PM 46.9475 -40.8620 84° East  Level FlightAware Approximate
Sun 09:51:00 PM 46.9607 -40.6559 85° East  Level FlightAware Approximate
Sun 09:52:00 PM 46.9734 -40.4497 85° East  Level FlightAware Approximate
Sun 09:53:00 PM 46.9859 -40.2434 85° East  Level FlightAware Approximate
Sun 09:54:00 PM 46.9979 -40.0370 85° East  Level FlightAware Approximate
Sun 09:55:00 PM 47.0242 -39.8337 78° East  Level FlightAware Approximate
Sun 09:56:00 PM 47.0533 -39.6308 78° East  Level FlightAware Approximate
Sun 09:57:00 PM 47.0820 -39.4277 78° East  Level FlightAware Approximate
Sun 09:58:00 PM 47.1104 -39.2244 78° East  Level FlightAware Approximate
Sun 09:59:00 PM 47.1385 -39.0209 78° East  Level FlightAware Approximate
Sun 10:00:00 PM 47.1662 -38.8172 79° East  Level FlightAware Approximate
Sun 10:01:00 PM 47.1935 -38.6133 79° East  Level FlightAware Approximate
Sun 10:02:00 PM 47.2204 -38.4091 79° East  Level FlightAware Approximate
Sun 10:03:00 PM 47.2470 -38.2047 79° East  Level FlightAware Approximate
Sun 10:04:00 PM 47.2733 -38.0002 79° East  Level FlightAware Approximate
Sun 10:05:00 PM 47.2991 -37.7954 79° East  Level FlightAware Approximate
Sun 10:06:00 PM 47.3246 -37.5905 80° East  Level FlightAware Approximate
Sun 10:07:00 PM 47.3497 -37.3853 80° East  Level FlightAware Approximate
Sun 10:08:00 PM 47.3745 -37.1800 80° East  Level FlightAware Approximate
Sun 10:09:00 PM 47.3989 -36.9744 80° East  Level FlightAware Approximate
Sun 10:10:00 PM 47.4229 -36.7687 80° East  Level FlightAware Approximate
Sun 10:11:00 PM 47.4466 -36.5628 80° East  Level FlightAware Approximate
Sun 10:12:00 PM 47.4699 -36.3567 80° East  Level FlightAware Approximate
Sun 10:13:00 PM 47.4928 -36.1504 81° East  Level FlightAware Approximate
Sun 10:14:00 PM 47.5154 -35.9439 81° East  Level FlightAware Approximate
Sun 10:15:00 PM 47.5376 -35.7373 81° East  Level FlightAware Approximate
Sun 10:16:00 PM 47.5594 -35.5305 81° East  Level FlightAware Approximate
Sun 10:17:00 PM 47.5808 -35.3235 81° East  Level FlightAware Approximate
Sun 10:18:00 PM 47.6019 -35.1163 81° East  Level FlightAware Approximate
Sun 10:19:00 PM 47.6226 -34.9090 82° East  Level FlightAware Approximate
Sun 10:20:00 PM 47.6429 -34.7015 82° East  Level FlightAware Approximate
Sun 10:21:00 PM 47.6628 -34.4939 82° East  Level FlightAware Approximate
Sun 10:22:00 PM 47.6824 -34.2861 82° East  Level FlightAware Approximate
Sun 10:23:00 PM 47.7016 -34.0782 82° East  Level FlightAware Approximate
Sun 10:24:00 PM 47.7204 -33.8700 82° East  Level FlightAware Approximate
Sun 10:25:00 PM 47.7389 -33.6618 82° East  Level FlightAware Approximate
Sun 10:26:00 PM 47.7569 -33.4534 83° East  Level FlightAware Approximate
Sun 10:27:00 PM 47.7746 -33.2449 83° East  Level FlightAware Approximate
Sun 10:28:00 PM 47.7919 -33.0362 83° East  Level FlightAware Approximate
Sun 10:29:00 PM 47.8089 -32.8274 83° East  Level FlightAware Approximate
Sun 10:30:00 PM 47.8254 -32.6184 83° East  Level FlightAware Approximate
Sun 10:31:00 PM 47.8416 -32.4093 83° East  Level FlightAware Approximate
Sun 10:32:00 PM 47.8574 -32.2001 84° East  Level FlightAware Approximate
Sun 10:33:00 PM 47.8728 -31.9908 84° East  Level FlightAware Approximate
Sun 10:34:00 PM 47.8878 -31.7813 84° East  Level FlightAware Approximate
Sun 10:35:00 PM 47.9025 -31.5717 84° East  Level FlightAware Approximate
Sun 10:36:00 PM 47.9168 -31.3620 84° East  Level FlightAware Approximate
Sun 10:37:00 PM 47.9306 -31.1522 84° East  Level FlightAware Approximate
Sun 10:38:00 PM 47.9442 -30.9423 84° East  Level FlightAware Approximate
Sun 10:39:00 PM 47.9573 -30.7323 85° East  Level FlightAware Approximate
Sun 10:40:00 PM 47.9700 -30.5221 85° East  Level FlightAware Approximate
Sun 10:41:00 PM 47.9824 -30.3119 85° East  Level FlightAware Approximate
Sun 10:42:00 PM 47.9944 -30.1015 85° East  Level FlightAware Approximate
Sun 10:43:00 PM 48.0152 -29.8931 78° East  Level FlightAware Approximate
Sun 10:44:00 PM 48.0444 -29.6864 78° East  Level FlightAware Approximate
Sun 10:45:00 PM 48.0731 -29.4794 78° East  Level FlightAware Approximate
Sun 10:46:00 PM 48.1015 -29.2722 78° East  Level FlightAware Approximate
Sun 10:47:00 PM 48.1295 -29.0648 78° East  Level FlightAware Approximate
Sun 10:48:00 PM 48.1572 -28.8572 79° East  Level FlightAware Approximate
Sun 10:49:00 PM 48.1845 -28.6493 79° East  Level FlightAware Approximate
Sun 10:50:00 PM 48.2114 -28.4412 79° East  Level FlightAware Approximate
Sun 10:51:00 PM 48.2379 -28.2329 79° East  Level FlightAware Approximate
Sun 10:52:00 PM 48.2640 -28.0244 79° East  Level FlightAware Approximate
Sun 10:53:00 PM 48.2898 -27.8157 79° East  Level FlightAware Approximate
Sun 10:54:00 PM 48.3152 -27.6067 80° East  Level FlightAware Approximate
Sun 10:55:00 PM 48.3402 -27.3976 80° East  Level FlightAware Approximate
Sun 10:56:00 PM 48.3648 -27.1882 80° East  Level FlightAware Approximate
Sun 10:57:00 PM 48.3891 -26.9787 80° East  Level FlightAware Approximate
Sun 10:58:00 PM 48.4129 -26.7689 80° East  Level FlightAware Approximate
Sun 10:59:00 PM 48.4364 -26.5590 80° East  Level FlightAware Approximate
Sun 11:00:00 PM 48.4595 -26.3489 81° East  Level FlightAware Approximate
Sun 11:01:00 PM 48.4829 -26.1387 80° East  Level FlightAware Approximate
Sun 11:02:00 PM 48.5063 -25.9284 80° East  Level FlightAware Approximate
Sun 11:03:00 PM 48.5292 -25.7180 81° East  Level FlightAware Approximate
Sun 11:04:00 PM 48.5518 -25.5073 81° East  Level FlightAware Approximate
Sun 11:05:00 PM 48.5739 -25.2965 81° East  Level FlightAware Approximate
Sun 11:06:00 PM 48.5957 -25.0855 81° East  Level FlightAware Approximate
Sun 11:07:00 PM 48.6171 -24.8743 81° East  Level FlightAware Approximate
Sun 11:08:00 PM 48.6381 -24.6629 81° East  Level FlightAware Approximate
Sun 11:09:00 PM 48.6587 -24.4513 82° East  Level FlightAware Approximate
Sun 11:10:00 PM 48.6790 -24.2396 82° East  Level FlightAware Approximate
Sun 11:11:00 PM 48.6988 -24.0277 82° East  Level FlightAware Approximate
Sun 11:12:00 PM 48.7183 -23.8156 82° East  Level FlightAware Approximate
Sun 11:13:00 PM 48.7374 -23.6034 82° East  Level FlightAware Approximate
Sun 11:14:00 PM 48.7561 -23.3910 82° East  Level FlightAware Approximate
Sun 11:15:00 PM 48.7743 -23.1785 82° East  Level FlightAware Approximate
Sun 11:16:00 PM 48.7922 -22.9658 83° East  Level FlightAware Approximate
Sun 11:17:00 PM 48.8097 -22.7529 83° East  Level FlightAware Approximate
Sun 11:18:00 PM 48.8269 -22.5399 83° East  Level FlightAware Approximate
Sun 11:19:00 PM 48.8436 -22.3268 83° East  Level FlightAware Approximate
Sun 11:20:00 PM 48.8599 -22.1135 83° East  Level FlightAware Approximate
Sun 11:21:00 PM 48.8759 -21.9001 83° East  Level FlightAware Approximate
Sun 11:22:00 PM 48.8914 -21.6866 84° East  Level FlightAware Approximate
Sun 11:23:00 PM 48.9066 -21.4729 84° East  Level FlightAware Approximate
Sun 11:24:00 PM 48.9213 -21.2591 84° East  Level FlightAware Approximate
Sun 11:25:00 PM 48.9357 -21.0451 84° East  Level FlightAware Approximate
Sun 11:26:00 PM 48.9496 -20.8311 84° East  Level FlightAware Approximate
Sun 11:27:00 PM 48.9632 -20.6169 84° East  Level FlightAware Approximate
Sun 11:28:00 PM 48.9763 -20.4026 85° East  Level FlightAware Approximate
Sun 11:29:00 PM 48.9891 -20.1882 85° East  Level FlightAware Approximate
Sun 11:30:00 PM 49.0014 -19.9737 85° East  Level FlightAware Approximate
Sun 11:31:00 PM 49.0122 -19.7590 86° East  Level FlightAware Approximate
Sun 11:32:00 PM 49.0227 -19.5441 86° East  Level FlightAware Approximate
Sun 11:33:00 PM 49.0327 -19.3292 86° East  Level FlightAware Approximate
Sun 11:34:00 PM 49.0424 -19.1142 86° East  Level FlightAware Approximate
Sun 11:35:00 PM 49.0517 -18.8991 86° East  Level FlightAware Approximate
Sun 11:36:00 PM 49.0605 -18.6839 86° East  Level FlightAware Approximate
Sun 11:37:00 PM 49.0690 -18.4687 86° East  Level FlightAware Approximate
Sun 11:38:00 PM 49.0771 -18.2533 87° East  Level FlightAware Approximate
Sun 11:39:00 PM 49.0847 -18.0380 87° East  Level FlightAware Approximate
Sun 11:40:00 PM 49.0920 -17.8225 87° East  Level FlightAware Approximate
Sun 11:41:00 PM 49.0988 -17.6070 87° East  Level FlightAware Approximate
Sun 11:42:00 PM 49.1053 -17.3914 87° East  Level FlightAware Approximate
Sun 11:43:00 PM 49.1114 -17.1758 87° East  Level FlightAware Approximate
Sun 11:44:00 PM 49.1170 -16.9601 88° East  Level FlightAware Approximate
Sun 11:45:00 PM 49.1223 -16.7444 88° East  Level FlightAware Approximate
Sun 11:46:00 PM 49.1271 -16.5286 88° East  Level FlightAware Approximate
Sun 11:47:00 PM 49.1316 -16.3128 88° East  Level FlightAware Approximate
Sun 11:48:00 PM 49.1356 -16.0970 88° East  Level FlightAware Approximate
Sun 11:49:00 PM 49.1393 -15.8811 88° East  Level FlightAware Approximate
Sun 11:50:00 PM 49.1425 -15.6652 89° East  Level FlightAware Approximate
Sun 11:51:00 PM 49.1454 -15.4492 89° East  Level FlightAware Approximate
Sun 11:52:00 PM 49.1478 -15.2333 89° East  Level FlightAware Approximate
Sun 11:53:00 PM 49.1498 -15.0173 89° East  Level FlightAware Approximate
Sun 11:54:00 PM 49.1516 -14.8013 89° East  Level FlightAware Approximate
Sun 11:55:00 PM 49.1529 -14.5853 89° East  Level FlightAware Approximate
Sun 11:56:00 PM 49.1539 -14.3693 90° East  Level FlightAware Approximate
Sun 11:57:00 PM 49.1544 -14.1533 90° East  Level FlightAware Approximate
Sun 11:58:00 PM 49.1545 -13.9373 90° East  Level FlightAware Approximate
Sun 11:59:00 PM 49.1543 -13.7212 90° East  Level FlightAware Approximate
Mon 12:00:00 AM 49.1536 -13.5052 90° East  Level FlightAware Approximate
Mon 12:01:00 AM 49.1525 -13.2892 90° East  Level FlightAware Approximate
Mon 12:02:00 AM 49.1510 -13.0732 91° East  Level FlightAware Approximate
Mon 12:03:00 AM 49.1491 -12.8572 91° East  Level FlightAware Approximate
Mon 12:03:38 AM 48.7760 -9.2100 91° East 524 603 35,100  Level FlightAware ADS-B
Mon 12:04:00 AM 49.1468 -12.6413 91° East  Level FlightAware Approximate
Mon 12:04:18 AM 48.7640 -9.0540 97° East 523 602 35,100  Level FlightAware ADS-B
Mon 12:05:03 AM 48.7530 -8.8910 96° East 522 601 35,100 -1,600 Level FlightAware ADS-B
Mon 12:05:18 AM 48.7350 -8.7887 96° East 1 1 33,500 -2,909 Descending FlightAware UK
Mon 12:05:36 AM 48.7302 -8.7235 96° East 1 1 33,500 4,800 Level FlightAware UK
Mon 12:05:38 AM 48.7450 -8.7750 96° East 522 601 35,100  Climbing FlightAware ADS-B
Mon 12:05:54 AM 48.7255 -8.6581 96° East 1 1 33,500 -2,824 Descending FlightAware UK
Mon 12:06:12 AM 48.7209 -8.5927 96° East 470 541 33,500 3,310 Level FlightAware UK
Mon 12:06:23 AM 48.7320 -8.5990 96° East 522 601 35,100  Climbing FlightAware ADS-B
Mon 12:06:30 AM 48.7162 -8.5275 96° East 464 534 33,500 -5,053 Descending FlightAware UK
Mon 12:06:42 AM 48.7130 -8.4841 96° East 464 534 33,500  Level FlightAware UK
Mon 12:07:00 AM 48.7082 -8.4190 96° East 466 536 33,500 3,692 Level FlightAware UK
Mon 12:07:08 AM 48.7200 -8.4330 96° East 522 601 35,100  Climbing FlightAware ADS-B
Mon 12:07:24 AM 48.7016 -8.3322 96° East 468 539 33,500 -2,824 Descending FlightAware UK
Mon 12:07:42 AM 48.6967 -8.2670 97° East 468 539 33,500 4,000 Level FlightAware UK
Mon 12:07:48 AM 48.7090 -8.2870 97° East 523 602 35,100  Climbing FlightAware ADS-B
Mon 12:08:06 AM 48.6901 -8.1794 97° East 466 536 33,500 -2,667 Descending FlightAware UK
Mon 12:08:24 AM 48.6850 -8.1143 97° East 466 536 33,500 3,556 Level FlightAware UK
Mon 12:08:33 AM 48.6940 -8.1360 97° East 529 609 35,100  Climbing FlightAware ADS-B
Mon 12:08:48 AM 48.6654 -8.0303 97° East 470 541 33,500 -2,909 Descending FlightAware UK
Mon 12:09:06 AM 48.6513 -7.9661 108° East 472 543 33,500  Level FlightAware UK
Mon 12:09:24 AM 48.6376 -7.9030 108° East 472 543 33,500  Level FlightAware UK
Mon 12:09:42 AM 48.6239 -7.8398 108° East 470 541 33,500  Level FlightAware UK
Mon 12:10:00 AM 48.6106 -7.7764 108° East 470 541 33,500  Level FlightAware UK
Mon 12:10:18 AM 48.5973 -7.7134 108° East 468 539 33,500  Level FlightAware UK
Mon 12:10:36 AM 48.5834 -7.6506 108° East 468 539 33,500  Level FlightAware UK
Mon 12:10:54 AM 48.5687 -7.5875 109° East 468 539 33,500  Level FlightAware UK
Mon 12:11:12 AM 48.5539 -7.5260 110° East 468 539 33,500  Level FlightAware UK
Mon 12:11:30 AM 48.5387 -7.4638 110° East 470 541 33,500  Level FlightAware UK
Mon 12:11:48 AM 48.5236 -7.4016 110° East 470 541 33,500  Level FlightAware UK
Mon 12:12:06 AM 48.5085 -7.3394 110° East 470 541 33,500  Level FlightAware UK
Mon 12:12:24 AM 48.4933 -7.2765 110° East 470 541 33,500  Level FlightAware UK
Mon 12:12:42 AM 48.4783 -7.2141 110° East 472 543 33,500  Level FlightAware UK
Mon 12:13:00 AM 48.4633 -7.1519 110° East 474 545 33,500  Level FlightAware UK
Mon 12:13:18 AM 48.4483 -7.0895 110° East 474 545 33,500  Level FlightAware UK
Mon 12:13:36 AM 48.4333 -7.0273 110° East 474 545 33,500  Level FlightAware UK
Mon 12:13:54 AM 48.4181 -6.9652 110° East 474 545 33,500  Level FlightAware UK
Mon 12:14:12 AM 48.4028 -6.9032 110° East 474 545 33,500  Level FlightAware UK
Mon 12:14:30 AM 48.3873 -6.8407 110° East 474 545 33,500  Level FlightAware UK
Mon 12:14:48 AM 48.3720 -6.7789 110° East 472 543 33,500  Level FlightAware UK
Mon 12:15:06 AM 48.3566 -6.7172 111° Southeast 472 543 33,500  Level FlightAware UK
Mon 12:15:24 AM 48.3412 -6.6556 111° Southeast 474 545 33,500  Level FlightAware UK
Mon 12:15:42 AM 48.3260 -6.5941 110° East 476 548 33,500  Level FlightAware UK
Mon 12:16:00 AM 48.3106 -6.5327 111° Southeast 472 543 33,500  Level FlightAware UK
Mon 12:16:18 AM 48.2952 -6.4719 111° Southeast 472 543 33,500  Level FlightAware UK
Mon 12:16:36 AM 48.2797 -6.4111 111° Southeast 474 545 33,500  Level FlightAware UK
Mon 12:16:54 AM 48.2643 -6.3503 111° Southeast 474 545 33,500  Level FlightAware UK
Mon 12:17:13 AM 48.2487 -6.2888 111° Southeast 472 543 33,500  Level FlightAware UK
Mon 12:17:31 AM 48.2332 -6.2279 111° Southeast 470 541 33,500  Level FlightAware UK
Mon 12:17:49 AM 48.2178 -6.1671 111° Southeast 472 543 33,500  Level FlightAware UK
Mon 12:18:07 AM 48.2024 -6.1065 111° Southeast 472 543 33,500  Level FlightAware UK
Mon 12:18:25 AM 48.1870 -6.0459 111° Southeast 472 543 33,500 342 Level FlightAware UK
Mon 12:22:48 AM 47.9750 -5.2140 111° Southeast 520 598 35,100 276 Climbing FlightAware ADS-B
Mon 12:24:13 AM 47.8940 -4.9150 112° Southeast 520 598 35,100  Level FlightAware ADS-B
Mon 12:24:53 AM 47.8570 -4.7770 112° Southeast 519 597 35,100  Level FlightAware ADS-B
Mon 12:25:33 AM 47.8230 -4.6500 112° Southeast 519 597 35,100  Level FlightAware ADS-B
Mon 12:26:18 AM 47.7820 -4.4980 112° Southeast 519 597 35,100  Level FlightAware ADS-B
Mon 12:26:58 AM 47.7490 -4.3780 112° Southeast 520 598 35,100  Level FlightAware ADS-B
Mon 12:27:38 AM 47.7110 -4.2410 112° Southeast 519 597 35,100  Level FlightAware ADS-B
Mon 12:28:23 AM 47.6710 -4.0940 112° Southeast 519 597 35,100  Level FlightAware ADS-B
Mon 12:29:03 AM 47.6340 -3.9640 113° Southeast 519 597 35,100  Level FlightAware ADS-B
Mon 12:31:00 AM 47.5937 -3.5597 98° East  Level Estimated
Mon 12:32:00 AM 47.5724 -3.3526 99° East  Level Estimated
Mon 12:33:00 AM 47.5508 -3.1457 99° East  Level Estimated
Mon 12:34:00 AM 47.5288 -2.9390 99° East  Level Estimated
Mon 12:35:00 AM 47.5065 -2.7324 99° East  Level Estimated
Mon 12:36:00 AM 47.4837 -2.5260 99° East  Level Estimated
Mon 12:37:00 AM 47.4607 -2.3198 99° East  Level Estimated
Mon 12:38:00 AM 47.4372 -2.1138 99° East  Level Estimated
Mon 12:39:00 AM 47.4134 -1.9080 100° East  Level Estimated
Mon 12:40:00 AM 47.3892 -1.7023 100° East  Level Estimated
Mon 12:40:43 AM 46.9700 -1.6920 100° East 517 595 35,100  Level FlightAware ADS-B
Mon 12:41:28 AM 46.9260 -1.5510 115° Southeast 517 595 35,100  Level FlightAware ADS-B
Mon 12:42:08 AM 46.8870 -1.4240 114° Southeast 516 594 35,100  Level FlightAware ADS-B
Mon 12:42:53 AM 46.8420 -1.2780 114° Southeast 515 593 35,100  Level FlightAware ADS-B
Mon 12:43:33 AM 46.8020 -1.1510 115° Southeast 515 593 35,100  Level FlightAware ADS-B
Mon 12:44:18 AM 46.7600 -1.0160 114° Southeast 514 592 35,100  Level FlightAware ADS-B
Mon 12:44:58 AM 46.7190 -0.8870 115° Southeast 513 590 35,100  Level FlightAware ADS-B
Mon 12:45:33 AM 46.6950 -0.7830 109° East 515 593 35,100  Level FlightAware ADS-B
Mon 12:46:18 AM 46.6700 -0.6230 103° East 35,100  Level FlightAware ADS-B
Mon 12:46:53 AM 46.6510 -0.5070 103° East 516 594 35,100  Level FlightAware ADS-B
Mon 12:47:53 AM 46.6220 -0.3130 102° East 515 593 35,100  Level FlightAware ADS-B
Mon 12:48:53 AM 46.5890 -0.1120 103° East 514 592 35,100  Level FlightAware ADS-B
Mon 12:50:18 AM 46.5430 0.1700 103° East 513 590 35,100  Level FlightAware ADS-B
Mon 12:51:03 AM 46.5170 0.3300 103° East 512 589 35,100  Level FlightAware ADS-B
Mon 12:51:43 AM 46.4950 0.4670 103° East 511 588 35,100  Level FlightAware ADS-B
Mon 12:52:28 AM 46.4690 0.6200 104° East 512 589 35,100  Level FlightAware ADS-B
Mon 12:53:03 AM 46.4490 0.7400 104° East 512 589 35,100  Level FlightAware ADS-B
Mon 12:53:48 AM 46.4260 0.8780 104° East 512 589 35,100  Level FlightAware ADS-B
Mon 12:54:38 AM 46.3990 1.0390 104° East 509 586 35,100  Level FlightAware ADS-B
Mon 12:55:28 AM 46.3680 1.2190 104° East 509 586 35,100  Level FlightAware ADS-B
Mon 12:56:13 AM 46.3440 1.3600 104° East 507 583 35,100  Level FlightAware ADS-B
Mon 12:57:08 AM 46.3140 1.5330 104° East 506 582 35,100  Level FlightAware ADS-B
Mon 12:57:48 AM 46.2890 1.6770 104° East 505 581 35,100  Level FlightAware ADS-B
Mon 12:58:33 AM 46.2620 1.8280 104° East 504 580 35,100  Level FlightAware ADS-B
Mon 12:59:13 AM 46.2390 1.9560 105° East 503 579 35,100  Level FlightAware ADS-B
Mon 12:59:53 AM 46.2150 2.0900 104° East 505 581 35,100  Level FlightAware ADS-B
Mon 01:00:38 AM 46.1900 2.2290 105° East 505 581 35,100  Level FlightAware ADS-B
Mon 01:01:18 AM 46.1670 2.3560 105° East 504 580 35,100  Level FlightAware ADS-B
Mon 01:01:58 AM 46.1420 2.4910 105° East 505 581 35,100  Level FlightAware ADS-B
Mon 01:02:43 AM 46.1150 2.6400 105° East 504 580 35,100  Level FlightAware ADS-B
Mon 01:03:23 AM 46.0910 2.7690 105° East 504 580 35,100  Level FlightAware ADS-B
Mon 01:04:08 AM 46.0640 2.9120 105° East 505 581 35,100  Level FlightAware ADS-B
Mon 01:04:48 AM 46.0390 3.0400 106° East 507 583 35,100  Level FlightAware ADS-B
Mon 01:05:28 AM 46.0140 3.1710 105° East 507 583 35,100  Level FlightAware ADS-B
Mon 01:06:13 AM 45.9860 3.3200 105° East 508 585 35,100  Level FlightAware ADS-B
Mon 01:06:53 AM 45.9610 3.4490 106° East 508 585 35,100  Level FlightAware ADS-B
Mon 01:07:33 AM 45.9370 3.5810 105° East 509 586 35,100  Level FlightAware ADS-B
Mon 01:08:18 AM 45.9130 3.7250 103° East 509 586 35,100  Level FlightAware ADS-B
Mon 01:08:58 AM 45.8900 3.8550 104° East 509 586 35,100  Level FlightAware ADS-B
Mon 01:09:43 AM 45.8640 4.0050 104° East 510 587 35,100  Level FlightAware ADS-B
Mon 01:10:23 AM 45.8400 4.1370 105° East 510 587 35,100  Level FlightAware ADS-B
Mon 01:11:08 AM 45.8140 4.2830 104° East 510 587 35,100  Level FlightAware ADS-B
Mon 01:11:48 AM 45.7910 4.4100 105° East 508 585 35,100  Level FlightAware ADS-B
Mon 01:12:23 AM 45.7660 4.5280 107° East 502 578 35,100  Level FlightAware ADS-B
Mon 01:13:08 AM 45.7340 4.6350 113° Southeast 497 572 35,100  Level FlightAware ADS-B
Mon 01:13:48 AM 45.6900 4.7720 115° Southeast 490 564 35,100  Level FlightAware ADS-B
Mon 01:14:38 AM 45.6430 4.9180 115° Southeast 487 560 35,100  Level FlightAware ADS-B
Mon 01:15:18 AM 45.6050 5.0370 114° Southeast 487 560 35,100  Level FlightAware ADS-B
Mon 01:15:58 AM 45.5670 5.1540 115° Southeast 485 558 35,100 -494 Level FlightAware ADS-B
Mon 01:16:43 AM 45.5260 5.2810 115° Southeast 493 567 34,400 -1,271 Descending FlightAware ADS-B
Mon 01:17:23 AM 45.4860 5.4050 115° Southeast 477 549 33,300 -1,624 Descending FlightAware ADS-B
Mon 01:18:08 AM 45.4460 5.5280 115° Southeast 463 533 32,100 -1,624 Descending FlightAware ADS-B
Mon 01:18:48 AM 45.4100 5.6380 115° Southeast 455 524 31,000 -1,440 Descending FlightAware ADS-B
Mon 01:19:23 AM 45.3860 5.7090 116° Southeast 467 537 30,300 -1,582 Descending FlightAware ADS-B
Mon 01:20:38 AM 45.3080 5.9440 115° Southeast 455 524 28,100 -1,600 Descending FlightAware ADS-B
Mon 01:21:23 AM 45.2680 6.0620 116° Southeast 431 496 27,100 -825 Descending FlightAware ADS-B
Mon 01:21:58 AM 45.2390 6.1500 115° Southeast 429 494 27,000 -75 Descending FlightAware ADS-B
Mon 01:22:43 AM 45.2000 6.2640 116° Southeast 442 509 27,000  Level FlightAware ADS-B
Mon 01:23:28 AM 45.1590 6.3860 115° Southeast 444 511 27,000  Level FlightAware ADS-B
Mon 01:24:13 AM 45.1190 6.5040 116° Southeast 443 510 27,000 71 Level FlightAware ADS-B
Mon 01:24:53 AM 45.0860 6.6180 112° Southeast 462 532 27,100  Climbing FlightAware ADS-B
Mon 01:25:33 AM 45.0680 6.7380 102° East 479 551 27,000 -706 Descending FlightAware ADS-B
Mon 01:26:18 AM 45.0540 6.8770 98° East 478 550 26,100 -1,200 Descending FlightAware ADS-B
Mon 01:26:58 AM 45.0480 6.9990 94° East 469 540 25,300 -1,402 Descending FlightAware ADS-B
Mon 01:29:00 AM 45.1744 7.3646 64° Northeast  Level Estimated
Mon 01:29:03 AM 45.0260 7.3710 64° Northeast 23,100  Level FlightAware ADS-B
Mon 01:31:00 AM 44.9500 7.7505 115° Southeast  Level FlightAware Approximate
Mon 01:32:00 AM 44.9656 7.9070 39° Northeast  Level FlightAware Approximate
Mon 01:33:00 AM 45.0695 8.0420 45° Northeast  Level FlightAware Approximate
Mon 01:33:43 AM 45.0950 8.0700 45° Northeast 352 405 15,700  Level FlightAware ADS-B
Mon 01:34:23 AM 45.1260 8.1550 63° Northeast 349 402 13,900 -2,541 Descending FlightAware ADS-B
Mon 01:35:08 AM 45.1590 8.2460 63° Northeast 329 379 12,100 -2,471 Descending FlightAware ADS-B
Mon 01:35:48 AM 45.1870 8.3220 62° Northeast 322 371 10,400 -2,143 Descending FlightAware ADS-B
Mon 01:36:18 AM 45.2080 8.3800 63° Northeast 307 353 9,600 -1,200 Descending FlightAware ADS-B
Mon 01:36:43 AM 45.2230 8.4240 64° Northeast 289 333 9,300 -600 Descending FlightAware ADS-B
Mon 01:36:58 AM 45.2320 8.4480 62° Northeast 280 322 9,200 -800 Descending FlightAware ADS-B
Mon 01:37:28 AM 45.2490 8.4970 64° Northeast 271 312 8,700 -1,067 Descending FlightAware ADS-B
Mon 01:37:43 AM 45.2580 8.5210 62° Northeast 269 310 8,400 -750 Descending FlightAware ADS-B
Mon 01:38:08 AM 45.2700 8.5550 63° Northeast 261 300 8,200 -360 Descending FlightAware ADS-B
Mon 01:38:33 AM 45.2830 8.5910 63° Northeast 244 281 8,100 -554 Descending FlightAware ADS-B
Mon 01:39:13 AM 45.3080 8.6440 56° Northeast 231 266 7,600 -800 Descending FlightAware ADS-B
Mon 01:39:48 AM 45.3380 8.6760 37° Northeast 227 261 7,100 -900 Descending FlightAware ADS-B
Mon 01:40:13 AM 45.3580 8.6960 35° Northeast 225 259 6,700 -982 Descending FlightAware ADS-B
Mon 01:40:43 AM 45.3850 8.7230 35° Northeast 225 259 6,200 -933 Descending FlightAware ADS-B
Mon 01:40:58 AM 45.3950 8.7330 35° Northeast 224 258 6,000 -900 Descending FlightAware ADS-B
Mon 01:41:23 AM 45.4170 8.7560 36° Northeast 217 250 5,600 -480 Descending FlightAware ADS-B
Mon 01:41:48 AM 45.4360 8.7750 35° Northeast 217 250 5,600 -875 Level FlightAware ADS-B
Mon 01:44:00 AM 45.6306 8.7281 350° North  Level Estimated
Mon 01:45:00 AM 45.6306 8.7281 170° South  Level Estimated
Mon 01:45:23 AM 45.5820 8.7400 170° South 150 173 2,100  Level FlightAware ADS-B

Login

Don't have an account? Register now (free) for customized features, flight alerts, and more!